createdAt,value
2024-02-14T00:01:19.774Z,2.42
2024-02-14T00:03:46.415Z,2.40
2024-02-14T00:06:14.430Z,2.31
2024-02-14T00:08:41.586Z,2.29
2024-02-14T00:11:08.218Z,2.20
2024-02-14T00:13:35.395Z,2.27
2024-02-14T00:16:03.668Z,2.31
2024-02-14T00:18:30.567Z,2.35
2024-02-14T00:20:57.217Z,2.36
2024-02-14T00:23:23.859Z,2.39
2024-02-14T00:25:50.458Z,2.38
2024-02-14T00:28:17.406Z,2.44
2024-02-14T00:30:43.942Z,2.43
2024-02-14T00:33:10.728Z,2.49
2024-02-14T00:35:37.453Z,2.40
2024-02-14T00:38:04.205Z,2.32
2024-02-14T00:40:30.829Z,2.30
2024-02-14T00:42:58.031Z,2.14
2024-02-14T00:45:24.594Z,2.08
2024-02-14T00:47:51.306Z,1.96
2024-02-14T00:50:17.903Z,2.00
2024-02-14T00:52:44.781Z,2.06
2024-02-14T00:55:12.094Z,1.94
2024-02-14T00:57:38.629Z,1.96
2024-02-14T01:00:07.639Z,1.98
2024-02-14T01:02:34.409Z,1.94
2024-02-14T01:05:00.997Z,1.80
2024-02-14T01:07:27.540Z,1.70
2024-02-14T01:09:54.080Z,1.67
2024-02-14T01:12:21.491Z,1.66
2024-02-14T01:14:48.140Z,1.61
2024-02-14T01:17:14.680Z,1.63
2024-02-14T01:19:41.543Z,1.57
2024-02-14T01:22:09.734Z,1.35
2024-02-14T01:24:36.539Z,1.36
2024-02-14T01:27:04.007Z,1.26
2024-02-14T01:29:30.748Z,1.26
2024-02-14T01:31:57.288Z,1.17
2024-02-14T01:34:24.979Z,1.18
2024-02-14T01:36:51.966Z,1.05
2024-02-14T01:39:19.352Z,1.03
2024-02-14T01:41:49.241Z,1.05
2024-02-14T01:44:16.707Z,1.01
2024-02-14T01:46:44.427Z,1.00
2024-02-14T01:49:15.558Z,0.92
2024-02-14T01:51:46.105Z,0.90
2024-02-14T01:54:13.960Z,0.89
2024-02-14T01:56:41.136Z,0.85
2024-02-14T01:59:09.007Z,0.78
2024-02-14T02:01:36.163Z,0.75
2024-02-14T02:04:05.123Z,0.72
2024-02-14T02:06:35.259Z,0.73
2024-02-14T02:09:02.263Z,0.62
2024-02-14T02:11:29.096Z,0.60
2024-02-14T02:13:56.336Z,0.69
2024-02-14T02:16:23.276Z,0.74
2024-02-14T02:18:50.857Z,0.75
2024-02-14T02:21:20.702Z,0.68
2024-02-14T02:23:50.189Z,0.56
2024-02-14T02:26:16.831Z,0.56
2024-02-14T02:28:43.799Z,0.53
2024-02-14T02:31:10.590Z,0.60
2024-02-14T02:33:37.472Z,0.62
2024-02-14T02:36:04.470Z,0.60
2024-02-14T02:38:31.185Z,0.57
2024-02-14T02:40:57.915Z,0.61
2024-02-14T02:43:24.528Z,0.58
2024-02-14T02:45:51.056Z,0.62
2024-02-14T02:48:17.748Z,0.57
2024-02-14T02:50:47.613Z,0.48
2024-02-14T02:53:14.257Z,0.56
2024-02-14T02:55:40.945Z,0.57
2024-02-14T02:58:08.030Z,0.61
2024-02-14T03:00:34.846Z,0.68
2024-02-14T03:03:01.967Z,0.70
2024-02-14T03:05:28.644Z,0.62
2024-02-14T03:07:58.216Z,0.58
2024-02-14T03:10:25.997Z,0.53
2024-02-14T03:12:53.012Z,0.54
2024-02-14T03:15:21.043Z,0.57
2024-02-14T03:17:47.705Z,0.40
2024-02-14T03:20:16.992Z,0.43
2024-02-14T03:22:46.865Z,0.48
2024-02-14T03:25:17.576Z,0.41
2024-02-14T03:27:48.173Z,0.48
2024-02-14T03:30:18.132Z,0.58
2024-02-14T03:32:46.289Z,0.54
2024-02-14T03:35:14.549Z,0.71
2024-02-14T03:37:48.553Z,0.85
2024-02-14T03:40:15.220Z,1.00
2024-02-14T03:42:41.779Z,1.05
2024-02-14T03:45:11.230Z,1.12
2024-02-14T03:47:41.372Z,1.19
2024-02-14T03:50:09.163Z,1.05
2024-02-14T03:52:35.783Z,1.01
2024-02-14T03:55:03.369Z,1.00
2024-02-14T03:57:29.898Z,1.00
2024-02-14T03:59:57.064Z,0.98
2024-02-14T04:02:27.223Z,0.97
2024-02-14T04:04:53.773Z,0.90
2024-02-14T04:07:20.647Z,0.76
2024-02-14T04:09:47.239Z,0.69
2024-02-14T04:12:14.673Z,0.74
2024-02-14T04:14:41.370Z,0.73
2024-02-14T04:17:12.597Z,0.74
2024-02-14T04:19:39.377Z,0.79
2024-02-14T04:22:06.914Z,0.79
2024-02-14T04:24:36.572Z,0.86
2024-02-14T04:27:06.384Z,0.96
2024-02-14T04:29:34.947Z,1.05
2024-02-14T04:32:03.247Z,1.18
2024-02-14T04:34:31.253Z,1.28
2024-02-14T04:36:58.133Z,1.26
2024-02-14T04:39:24.662Z,1.29
2024-02-14T04:41:57.472Z,1.36
2024-02-14T04:44:29.349Z,1.40
2024-02-14T04:46:57.073Z,1.49
2024-02-14T04:49:23.745Z,1.59
2024-02-14T04:51:50.312Z,1.58
2024-02-14T04:54:17.606Z,1.61
2024-02-14T04:56:44.262Z,1.62
2024-02-14T04:59:10.833Z,1.61
2024-02-14T05:01:37.443Z,1.57
2024-02-14T05:04:04.880Z,1.59
2024-02-14T05:06:31.543Z,1.53
2024-02-14T05:08:58.156Z,1.58
2024-02-14T05:11:24.937Z,1.49
2024-02-14T05:13:51.655Z,1.48
2024-02-14T05:16:24.293Z,1.48
2024-02-14T05:18:51.158Z,1.46
2024-02-14T05:21:21.352Z,1.51
2024-02-14T05:23:48.062Z,1.57
2024-02-14T05:26:14.675Z,1.58
2024-02-14T05:28:41.196Z,1.57
2024-02-14T05:31:08.582Z,1.61
2024-02-14T05:33:35.256Z,1.67
2024-02-14T05:36:02.899Z,1.65
2024-02-14T05:38:30.823Z,1.67
2024-02-14T05:40:57.408Z,1.61
2024-02-14T05:43:23.939Z,1.61
2024-02-14T05:45:50.501Z,1.73
2024-02-14T05:48:17.198Z,2.08
2024-02-14T05:50:44.055Z,2.45
2024-02-14T05:53:10.688Z,2.48
2024-02-14T05:55:37.248Z,2.37
2024-02-14T05:58:04.137Z,2.41
2024-02-14T06:00:30.825Z,2.37
2024-02-14T06:02:57.621Z,2.40
2024-02-14T06:05:24.207Z,2.45
2024-02-14T06:07:51.580Z,2.54
2024-02-14T06:10:18.938Z,2.71
2024-02-14T06:12:46.027Z,2.84
2024-02-14T06:15:12.696Z,2.90
2024-02-14T06:17:39.978Z,3.04
2024-02-14T06:20:09.193Z,3.25
2024-02-14T06:22:39.903Z,3.41
2024-02-14T06:25:11.956Z,3.33
2024-02-14T06:27:38.670Z,3.32
2024-02-14T06:30:06.282Z,3.25
2024-02-14T06:32:32.986Z,3.13
2024-02-14T06:34:59.804Z,3.08
2024-02-14T06:37:26.458Z,3.08
2024-02-14T06:39:53.007Z,3.04
2024-02-14T06:42:20.518Z,3.06
2024-02-14T06:44:47.252Z,3.13
2024-02-14T06:47:13.943Z,3.26
2024-02-14T06:49:40.527Z,3.49
2024-02-14T06:52:07.106Z,3.63
2024-02-14T06:54:33.699Z,3.75
2024-02-14T06:57:01.199Z,3.89
2024-02-14T06:59:27.967Z,4.00
2024-02-14T07:01:57.561Z,4.05
2024-02-14T07:04:32.256Z,4.04
2024-02-14T07:06:59.652Z,4.01
2024-02-14T07:09:26.511Z,4.05
2024-02-14T07:11:54.852Z,4.18
2024-02-14T07:14:21.426Z,4.24
2024-02-14T07:16:47.984Z,4.24
2024-02-14T07:19:14.730Z,4.34
2024-02-14T07:21:41.805Z,4.53
2024-02-14T07:24:08.493Z,4.69
2024-02-14T07:26:35.375Z,4.83
2024-02-14T07:29:05.207Z,4.92
2024-02-14T07:31:32.829Z,5.01
2024-02-14T07:33:59.857Z,4.99
2024-02-14T07:36:26.754Z,4.97
2024-02-14T07:38:53.683Z,5.10
2024-02-14T07:41:20.421Z,5.21
2024-02-14T07:43:47.116Z,5.24
2024-02-14T07:46:19.483Z,5.33
2024-02-14T07:48:46.958Z,5.41
2024-02-14T07:51:13.689Z,5.50
2024-02-14T07:53:40.757Z,5.53
2024-02-14T07:56:08.491Z,5.59
2024-02-14T07:58:37.325Z,5.75
2024-02-14T08:01:05.154Z,5.87
2024-02-14T08:03:31.745Z,5.97
2024-02-14T08:05:58.357Z,6.04
2024-02-14T08:08:27.977Z,6.02
2024-02-14T08:10:56.034Z,6.04
2024-02-14T08:13:22.735Z,6.12
2024-02-14T08:15:49.732Z,6.13
2024-02-14T08:18:16.658Z,6.23
2024-02-14T08:20:43.371Z,6.30
2024-02-14T08:23:10.162Z,6.34
2024-02-14T08:25:36.699Z,6.42
2024-02-14T08:28:03.857Z,6.57
2024-02-14T08:30:30.592Z,6.59
2024-02-14T08:32:58.182Z,6.61
2024-02-14T08:35:24.847Z,6.67
2024-02-14T08:37:51.444Z,6.75
2024-02-14T08:40:18.582Z,6.82
2024-02-14T08:42:45.278Z,6.90
2024-02-14T08:45:12.206Z,6.91
2024-02-14T08:47:39.232Z,6.97
2024-02-14T08:50:06.365Z,6.94
2024-02-14T08:52:33.543Z,6.92
2024-02-14T08:55:00.294Z,6.93
2024-02-14T08:57:27.444Z,6.97
2024-02-14T08:59:54.208Z,6.99
2024-02-14T09:02:21.552Z,6.90
2024-02-14T09:04:48.201Z,6.82
2024-02-14T09:07:14.979Z,6.84
2024-02-14T09:09:43.902Z,6.96
2024-02-14T09:12:10.566Z,6.93
2024-02-14T09:14:37.559Z,6.99
2024-02-14T09:17:04.226Z,6.99
2024-02-14T09:19:31.193Z,7.02
2024-02-14T09:21:57.894Z,7.07
2024-02-14T09:24:24.552Z,7.00
2024-02-14T09:26:51.275Z,7.00
2024-02-14T09:29:17.993Z,7.03
2024-02-14T09:31:48.453Z,7.11
2024-02-14T09:34:15.969Z,7.20
2024-02-14T09:36:42.585Z,7.12
2024-02-14T09:39:09.290Z,7.28
2024-02-14T09:41:44.264Z,7.42
2024-02-14T09:44:10.929Z,7.57
2024-02-14T09:46:40.509Z,7.73
2024-02-14T09:49:07.828Z,7.88
2024-02-14T09:51:34.940Z,7.98
2024-02-14T09:54:04.645Z,8.13
2024-02-14T09:56:33.021Z,8.18
2024-02-14T09:59:01.543Z,8.28
2024-02-14T10:01:28.366Z,8.43
2024-02-14T10:03:55.636Z,8.62
2024-02-14T10:06:23.448Z,8.75
2024-02-14T10:08:58.907Z,8.91
2024-02-14T10:11:32.832Z,8.91
2024-02-14T10:14:03.913Z,9.02
2024-02-14T10:16:31.024Z,9.07
2024-02-14T10:18:57.741Z,9.07
2024-02-14T10:21:26.600Z,9.02
2024-02-14T10:23:54.332Z,9.08
2024-02-14T10:26:21.477Z,9.26
2024-02-14T10:28:50.375Z,9.33
2024-02-14T10:31:17.347Z,9.47
2024-02-14T10:33:44.539Z,9.61
2024-02-14T10:36:13.974Z,9.55
2024-02-14T10:38:41.110Z,9.55
2024-02-14T10:41:10.881Z,9.44
2024-02-14T10:43:40.142Z,9.56
2024-02-14T10:46:24.630Z,9.71
2024-02-14T10:48:59.552Z,9.84
2024-02-14T10:51:29.129Z,9.81
2024-02-14T10:53:57.597Z,9.94
2024-02-14T10:56:29.860Z,10.03
2024-02-14T10:59:00.075Z,10.08
2024-02-14T11:01:33.484Z,10.05
2024-02-14T11:04:02.057Z,10.18
2024-02-14T11:06:30.678Z,10.00
2024-02-14T11:09:09.060Z,9.98
2024-02-14T11:11:36.598Z,9.93
2024-02-14T11:14:04.737Z,10.01
2024-02-14T11:16:34.288Z,10.00
2024-02-14T11:19:11.417Z,9.94
2024-02-14T11:21:43.689Z,10.05
2024-02-14T11:24:17.901Z,10.17
2024-02-14T11:26:50.181Z,10.18
2024-02-14T11:29:21.172Z,10.09
2024-02-14T11:31:49.732Z,10.07
2024-02-14T11:34:16.665Z,10.22
2024-02-14T11:36:45.159Z,10.39
2024-02-14T11:39:15.393Z,10.45
2024-02-14T11:41:44.740Z,10.39
2024-02-14T11:44:15.419Z,10.26
2024-02-14T11:46:42.968Z,10.28
2024-02-14T11:49:10.609Z,10.34
2024-02-14T11:51:37.572Z,10.39
2024-02-14T11:54:07.635Z,10.41
2024-02-14T11:56:38.769Z,10.59
2024-02-14T11:59:07.216Z,10.63
2024-02-14T12:01:36.399Z,10.70
2024-02-14T12:04:10.551Z,10.76
2024-02-14T12:06:38.335Z,10.78
2024-02-14T12:09:06.977Z,10.66
2024-02-14T12:11:34.417Z,10.62
2024-02-14T12:14:06.797Z,10.56
2024-02-14T12:16:37.188Z,10.56
2024-02-14T12:19:16.657Z,10.54
2024-02-14T12:21:46.578Z,10.60
2024-02-14T12:24:17.029Z,10.63
2024-02-14T12:26:44.218Z,10.64
2024-02-14T12:29:14.167Z,10.61
2024-02-14T12:31:40.998Z,10.59
2024-02-14T12:34:08.050Z,10.62
2024-02-14T12:36:35.737Z,10.58
2024-02-14T12:39:03.749Z,10.54
2024-02-14T12:41:31.718Z,10.55
2024-02-14T12:43:59.569Z,10.63
2024-02-14T12:46:26.142Z,10.67
2024-02-14T12:48:52.818Z,10.72
2024-02-14T12:51:19.506Z,10.84
2024-02-14T12:53:46.223Z,10.91
2024-02-14T12:56:12.821Z,10.95
2024-02-14T12:58:41.832Z,11.10
2024-02-14T13:01:12.244Z,11.05
2024-02-14T13:03:39.416Z,11.41
2024-02-14T13:06:06.478Z,11.45
2024-02-14T13:08:33.534Z,11.55
2024-02-14T13:11:00.316Z,11.74
2024-02-14T13:13:26.890Z,12.05
2024-02-14T13:15:53.606Z,12.47
2024-02-14T13:18:20.874Z,12.92
2024-02-14T13:20:47.945Z,13.20
2024-02-14T13:23:15.500Z,12.93
2024-02-14T13:25:42.585Z,12.54
2024-02-14T13:28:09.392Z,12.53
2024-02-14T13:30:37.404Z,12.74
2024-02-14T13:33:06.034Z,12.78
2024-02-14T13:35:35.103Z,12.79
2024-02-14T13:38:01.991Z,12.93
2024-02-14T13:40:28.821Z,12.80
2024-02-14T13:42:56.001Z,12.78
2024-02-14T13:45:23.387Z,13.03
2024-02-14T13:47:50.424Z,13.12
2024-02-14T13:50:17.199Z,12.82
2024-02-14T13:52:47.269Z,12.68
2024-02-14T13:55:14.078Z,13.01
2024-02-14T13:57:40.813Z,13.10
2024-02-14T14:00:10.865Z,13.23
2024-02-14T14:02:44.441Z,13.34
2024-02-14T14:05:16.407Z,13.41
2024-02-14T14:07:57.688Z,13.47
2024-02-14T14:10:28.484Z,13.32
2024-02-14T14:12:56.203Z,13.15
2024-02-14T14:15:25.810Z,12.95
2024-02-14T14:18:13.809Z,12.63
2024-02-14T14:20:42.910Z,12.58
2024-02-14T14:23:10.282Z,12.78
2024-02-14T14:25:51.368Z,12.84
2024-02-14T14:28:25.683Z,12.86
2024-02-14T14:30:55.844Z,12.78
2024-02-14T14:33:23.376Z,12.69
2024-02-14T14:35:54.655Z,12.51
2024-02-14T14:38:22.277Z,12.47
2024-02-14T14:40:51.495Z,12.12
2024-02-14T14:43:22.286Z,11.90
2024-02-14T14:45:50.781Z,11.83
2024-02-14T14:48:21.583Z,11.69
2024-02-14T14:50:48.609Z,11.74
2024-02-14T14:53:18.623Z,11.77
2024-02-14T14:55:58.499Z,11.75
2024-02-14T14:58:43.182Z,11.68
2024-02-14T15:01:14.989Z,11.71
2024-02-14T15:03:41.868Z,11.55
2024-02-14T15:06:08.630Z,11.57
2024-02-14T15:08:35.441Z,11.62
2024-02-14T15:11:02.358Z,11.54
2024-02-14T15:13:29.201Z,11.57
2024-02-14T15:15:56.507Z,11.46
2024-02-14T15:18:23.518Z,11.41
2024-02-14T15:20:50.428Z,11.39
2024-02-14T15:23:17.085Z,11.30
2024-02-14T15:25:43.831Z,11.22
2024-02-14T15:28:22.632Z,11.20
2024-02-14T15:31:07.962Z,11.20
2024-02-14T15:33:34.997Z,11.07
2024-02-14T15:36:02.141Z,10.85
2024-02-14T15:38:29.232Z,10.81
2024-02-14T15:41:02.812Z,10.74
2024-02-14T15:43:30.180Z,10.60
2024-02-14T15:45:58.699Z,10.52
2024-02-14T15:48:27.884Z,10.53
2024-02-14T15:50:54.769Z,10.45
2024-02-14T15:53:21.501Z,10.37
2024-02-14T15:55:48.502Z,10.34
2024-02-14T15:58:16.362Z,10.23
2024-02-14T16:00:43.147Z,10.13
2024-02-14T16:03:11.596Z,10.15
2024-02-14T16:05:38.908Z,10.01
2024-02-14T16:08:06.525Z,9.99
2024-02-14T16:10:33.212Z,9.96
2024-02-14T16:12:59.902Z,9.87
2024-02-14T16:15:27.408Z,9.86
2024-02-14T16:17:54.713Z,9.87
2024-02-14T16:20:23.024Z,9.74
2024-02-14T16:23:05.835Z,9.73
2024-02-14T16:25:36.661Z,9.67
2024-02-14T16:28:03.873Z,9.59
2024-02-14T16:30:30.736Z,9.59
2024-02-14T16:32:58.339Z,9.53
2024-02-14T16:35:25.876Z,9.42
2024-02-14T16:37:53.017Z,9.30
2024-02-14T16:40:19.897Z,9.28
2024-02-14T16:42:46.757Z,9.17
2024-02-14T16:45:19.602Z,9.08
2024-02-14T16:51:58.252Z,8.97
2024-02-14T16:54:27.244Z,8.97
2024-02-14T16:56:55.758Z,8.90
2024-02-14T16:59:24.947Z,8.86
2024-02-14T17:01:51.622Z,8.83
2024-02-14T17:04:18.561Z,8.81
2024-02-14T17:06:45.810Z,8.72
2024-02-14T17:09:14.732Z,8.72
2024-02-14T17:11:42.048Z,8.73
2024-02-14T17:14:11.075Z,8.63
2024-02-14T17:16:38.309Z,8.61
2024-02-14T17:19:08.102Z,8.54
2024-02-14T17:21:35.008Z,8.57
2024-02-14T17:24:01.975Z,8.55
2024-02-14T17:26:28.992Z,8.43
2024-02-14T17:28:56.828Z,8.40
2024-02-14T17:31:23.650Z,8.44
2024-02-14T17:33:51.516Z,8.38
2024-02-14T17:36:18.451Z,8.27
2024-02-14T17:41:41.367Z,8.29
2024-02-14T17:44:09.166Z,8.19
2024-02-14T17:46:36.083Z,8.14
2024-02-14T17:49:04.179Z,8.16
2024-02-14T17:51:31.585Z,8.16
2024-02-14T17:53:58.522Z,8.16
2024-02-14T17:56:26.104Z,8.15
2024-02-14T17:58:52.948Z,8.14
2024-02-14T18:01:20.122Z,8.09
2024-02-14T18:03:46.849Z,8.12
2024-02-14T18:06:16.684Z,8.11
2024-02-14T18:08:45.570Z,8.10
2024-02-14T18:11:14.049Z,8.13
2024-02-14T18:13:40.886Z,8.10
2024-02-14T18:16:10.045Z,8.11
2024-02-14T18:18:42.551Z,8.18
2024-02-14T18:21:09.374Z,8.17
2024-02-14T18:23:36.150Z,8.17
2024-02-14T18:26:02.935Z,8.23
2024-02-14T18:28:58.401Z,8.22
2024-02-14T18:31:29.292Z,8.21
2024-02-14T18:33:58.183Z,8.24
2024-02-14T18:36:37.019Z,8.22
2024-02-14T18:39:20.265Z,8.24
2024-02-14T18:41:48.627Z,8.28
2024-02-14T18:44:15.440Z,8.27
2024-02-14T18:46:47.738Z,8.26
2024-02-14T18:49:20.181Z,8.25
2024-02-14T18:51:47.305Z,8.28
2024-02-14T18:54:15.727Z,8.30
2024-02-14T18:56:44.318Z,8.30
2024-02-14T18:59:16.789Z,8.32
2024-02-14T19:01:43.554Z,8.29
2024-02-14T19:04:10.692Z,8.28
2024-02-14T19:06:40.367Z,8.27
2024-02-14T19:09:13.121Z,8.27
2024-02-14T19:11:43.856Z,8.27
2024-02-14T19:14:10.501Z,8.25
2024-02-14T19:16:37.179Z,8.29
2024-02-14T19:19:05.157Z,8.30
2024-02-14T19:21:32.690Z,8.29
2024-02-14T19:23:59.600Z,8.23
2024-02-14T19:26:26.504Z,8.20
2024-02-14T19:29:05.840Z,8.14
2024-02-14T19:31:32.715Z,8.14
2024-02-14T19:33:59.559Z,8.02
2024-02-14T19:36:26.480Z,7.99
2024-02-14T19:38:53.299Z,7.98
2024-02-14T19:41:20.148Z,7.91
2024-02-14T19:43:47.125Z,7.87
2024-02-14T19:46:13.832Z,7.83
2024-02-14T19:48:41.369Z,7.84
2024-02-14T19:51:08.207Z,7.87
2024-02-14T19:53:36.259Z,7.90
2024-02-14T19:56:02.972Z,7.90
2024-02-14T19:58:29.790Z,7.94
2024-02-14T20:00:56.783Z,7.97
2024-02-14T20:03:23.574Z,7.99
2024-02-14T20:05:50.496Z,7.97
2024-02-14T20:08:18.762Z,7.97
2024-02-14T20:10:45.716Z,7.91
2024-02-14T20:13:12.477Z,7.93
2024-02-14T20:15:39.204Z,7.97
2024-02-14T20:18:06.145Z,8.01
2024-02-14T20:20:32.982Z,8.01
2024-02-14T20:22:59.918Z,7.96
2024-02-14T20:25:27.027Z,7.94
2024-02-14T20:27:54.712Z,7.94
2024-02-14T20:30:21.509Z,7.93
2024-02-14T20:32:48.443Z,7.92
2024-02-14T20:35:15.868Z,7.84
2024-02-14T20:37:44.298Z,7.81
2024-02-14T20:40:13.862Z,7.78
2024-02-14T20:42:41.581Z,7.69
2024-02-14T20:45:09.120Z,7.64
2024-02-14T20:47:36.432Z,7.65
2024-02-14T20:50:03.979Z,7.60
2024-02-14T20:52:30.675Z,7.52
2024-02-14T20:54:58.699Z,7.60
2024-02-14T20:57:26.044Z,7.65
2024-02-14T20:59:52.868Z,7.61
2024-02-14T21:02:20.062Z,7.53
2024-02-14T21:04:47.032Z,7.48
2024-02-14T21:07:16.124Z,7.52
2024-02-14T21:09:43.493Z,7.57
2024-02-14T21:12:11.166Z,7.62
2024-02-14T21:14:38.394Z,7.65
2024-02-14T21:17:05.350Z,7.65
2024-02-14T21:19:32.112Z,7.68
2024-02-14T21:21:59.091Z,7.57
2024-02-14T21:24:25.858Z,7.46
2024-02-14T21:26:53.430Z,7.50
2024-02-14T21:29:20.297Z,7.46
2024-02-14T21:31:47.091Z,7.49
2024-02-14T21:34:13.977Z,7.49
2024-02-14T21:36:40.997Z,7.49
2024-02-14T21:39:08.114Z,7.49
2024-02-14T21:41:36.002Z,7.30
2024-02-14T21:44:04.030Z,7.33
2024-02-14T21:46:30.924Z,7.34
2024-02-14T21:48:58.743Z,7.33
2024-02-14T21:51:29.512Z,7.26
2024-02-14T21:53:56.738Z,7.25
2024-02-14T21:56:23.564Z,7.23
2024-02-14T21:58:50.406Z,7.19
2024-02-14T22:01:19.792Z,7.11
2024-02-14T22:03:46.573Z,7.10
2024-02-14T22:06:14.154Z,7.06
2024-02-14T22:08:41.398Z,7.05
2024-02-14T22:11:13.692Z,7.01
2024-02-14T22:13:40.764Z,6.99
2024-02-14T22:16:10.160Z,6.94
2024-02-14T22:18:39.143Z,6.95
2024-02-14T22:21:06.540Z,6.94
2024-02-14T22:23:33.600Z,6.93
2024-02-14T22:26:02.004Z,6.92
2024-02-14T22:28:35.380Z,6.91
2024-02-14T22:31:03.686Z,6.92
2024-02-14T22:33:31.153Z,6.96
2024-02-14T22:35:58.228Z,6.93
2024-02-14T22:38:25.287Z,6.95
2024-02-14T22:40:52.471Z,6.97
2024-02-14T22:43:19.400Z,7.00
2024-02-14T22:45:46.320Z,7.02
2024-02-14T22:48:13.297Z,7.05
2024-02-14T22:50:40.149Z,7.04
2024-02-14T22:53:06.998Z,7.10
2024-02-14T22:55:33.750Z,7.11
2024-02-14T22:58:01.807Z,7.11
2024-02-14T23:00:29.079Z,7.00
2024-02-14T23:02:55.851Z,6.96
2024-02-14T23:05:22.955Z,7.00
2024-02-14T23:07:50.675Z,6.97
2024-02-14T23:10:17.811Z,6.96
2024-02-14T23:12:45.460Z,6.94
2024-02-14T23:15:15.399Z,6.86
2024-02-14T23:17:42.910Z,6.76
2024-02-14T23:20:13.241Z,6.72
2024-02-14T23:22:40.443Z,6.67
2024-02-14T23:25:11.444Z,6.61
2024-02-14T23:27:39.790Z,6.60
2024-02-14T23:30:08.722Z,6.58
2024-02-14T23:32:40.575Z,6.52
2024-02-14T23:35:10.752Z,6.61
2024-02-14T23:37:40.872Z,6.58
2024-02-14T23:40:12.651Z,6.49
2024-02-14T23:42:43.818Z,6.50
2024-02-14T23:45:12.013Z,6.48
2024-02-14T23:47:39.902Z,6.48
2024-02-14T23:50:07.790Z,6.43
2024-02-14T23:52:35.529Z,6.35
2024-02-14T23:55:03.409Z,6.21
2024-02-14T23:57:30.087Z,6.23
2024-02-14T23:59:57.660Z,6.19
